Time;durP1;ratioP1;P1;durP2;ratioP2;P2;SDS_P1;SDS_P2;PMS_P1;PMS_P2;Temp;Humidity;BMP_temperature;BMP_pressure;BME280_temperature;BME280_humidity;BME280_pressure;Samples;Min_cycle;Max_cycle;Signal;HPM_P1;HPM_P2
2022/06/22 00:00:02;;;;;;;11.80;3.50;;;;;;;13.26;53.92;98793.20;108382;1287;22569;-92
2022/06/22 00:03:13;;;;;;;12.80;4.10;;;;;;;13.17;53.99;98799.70;108404;1287;23532;-93
2022/06/22 00:06:28;;;;;;;13.10;4.40;;;;;;;13.11;54.14;98807.71;107809;1294;22526;-93
2022/06/22 00:09:31;;;;;;;;;;;;;;;;;;;;;
2022/06/22 00:12:54;;;;;;;14.70;4.00;;;;;;;13.02;54.20;98812.59;107996;1293;22499;-92
2022/06/22 00:16:03;;;;;;;15.60;3.50;;;;;;;13.06;54.33;98813.20;107836;1293;22532;-92
2022/06/22 00:19:38;;;;;;;;;;;;;;;;;;;;;
2022/06/22 00:22:41;;;;;;;11.10;3.50;;;;;;;13.18;54.63;98798.36;108425;1289;22489;-93
2022/06/22 00:25:59;;;;;;;8.50;3.20;;;;;;;13.13;54.59;98790.71;108241;1290;22494;-91
2022/06/22 00:29:38;;;;;;;;;;;;;;;;;;;;;
2022/06/22 00:32:57;;;;;;;8.70;2.80;;;;;;;12.71;54.89;98790.08;107862;1294;22497;-91
2022/06/22 00:36:33;;;;;;;;;;;;;;;;;;;;;
2022/06/22 00:39:59;;;;;;;;;;;;;;;;;;;;;
2022/06/22 00:43:12;;;;;;;;;;;;;;;;;;;;;
2022/06/22 00:46:40;;;;;;;;;;;;;;;;;;;;;
2022/06/22 00:53:15;;;;;;;;;;;;;;;;;;;;;
2022/06/22 00:56:46;;;;;;;9.50;3.10;;;;;;;12.52;55.65;98772.60;108313;1289;22622;-93
2022/06/22 01:00:12;;;;;;;10.40;3.10;;;;;;;12.38;55.68;98785.40;107680;1294;22245;-92
2022/06/22 01:04:21;;;;;;;7.40;3.10;;;;;;;12.37;55.83;98786.21;107792;1293;22402;-92
2022/06/22 01:07:02;;;;;;;12.30;4.80;;;;;;;12.37;55.83;98777.27;107658;1294;22518;-91
2022/06/22 01:10:28;;;;;;;10.80;4.20;;;;;;;12.25;56.18;98774.52;107545;1296;22430;-93
2022/06/22 01:13:26;;;;;;;12.40;4.00;;;;;;;12.12;56.14;98766.10;107713;1295;22450;-92
2022/06/22 01:17:01;;;;;;;;;;;;;;;;;;;;;
2022/06/22 01:20:18;;;;;;;11.80;5.20;;;;;;;12.14;56.30;98760.42;107829;1293;22448;-91
2022/06/22 01:23:28;;;;;;;16.60;5.90;;;;;;;12.13;56.56;98762.63;107565;1294;22538;-92
2022/06/22 01:26:48;;;;;;;;;;;;;;;;;;;;;
2022/06/22 01:29:54;;;;;;;;;;;;;;;;;;;;;
2022/06/22 01:33:26;;;;;;;15.80;4.70;;;;;;;12.07;56.65;98761.20;107655;1295;22632;-94
2022/06/22 01:37:04;;;;;;;;;;;;;;;;;;;;;
2022/06/22 01:40:52;;;;;;;;;;;;;;;;;;;;;
2022/06/22 01:44:09;;;;;;;15.10;5.70;;;;;;;11.99;56.93;98763.11;107068;1303;22534;-92
2022/06/22 01:48:00;;;;;;;;;;;;;;;;;;;;;
2022/06/22 01:51:05;;;;;;;11.70;4.10;;;;;;;11.97;57.03;98773.86;107058;1302;22479;-91
2022/06/22 01:54:57;;;;;;;;;;;;;;;;;;;;;
2022/06/22 01:58:10;;;;;;;;;;;;;;;;;;;;;
2022/06/22 02:02:31;;;;;;;9.90;4.80;;;;;;;12.12;57.29;98767.52;106621;1311;22384;-92
2022/06/22 02:08:57;;;;;;;12.20;4.50;;;;;;;12.04;57.39;98758.21;104898;1324;22262;-92
2022/06/22 02:12:28;;;;;;;10.10;4.70;;;;;;;12.01;57.34;98761.30;104957;1321;21924;-93
2022/06/22 02:16:02;;;;;;;;;;;;;;;;;;;;;
2022/06/22 02:20:15;;;;;;;10.60;3.90;;;;;;;11.71;57.52;98752.25;106451;1312;22243;-90
2022/06/22 02:23:29;;;;;;;;;;;;;;;;;;;;;
2022/06/22 02:27:23;;;;;;;;;;;;;;;;;;;;;
2022/06/22 02:33:28;;;;;;;16.80;4.30;;;;;;;11.46;57.88;98754.53;105436;1317;22427;-92
2022/06/22 02:37:01;;;;;;;;;;;;;;;;;;;;;
2022/06/22 02:40:06;;;;;;;10.40;4.30;;;;;;;11.43;58.20;98749.81;105655;1317;22756;-91
2022/06/22 02:46:58;;;;;;;13.30;4.50;;;;;;;11.32;58.37;98747.50;106720;1305;22252;-93
2022/06/22 02:50:05;;;;;;;15.20;4.90;;;;;;;11.18;58.58;98745.45;106795;1305;22371;-93
2022/06/22 02:53:37;;;;;;;;;;;;;;;;;;;;;
2022/06/22 02:57:32;;;;;;;11.80;4.40;;;;;;;11.30;58.77;98743.77;107043;1300;22801;-91
2022/06/22 03:00:15;;;;;;;;;;;;;;;;;;;;;
2022/06/22 03:04:13;;;;;;;;;;;;;;;;;;;;;
2022/06/22 03:08:01;;;;;;;17.20;5.50;;;;;;;11.26;58.91;98749.76;107661;1293;22559;-89
2022/06/22 03:10:56;;;;;;;;;;;;;;;;;;;;;
2022/06/22 03:14:23;;;;;;;;;;;;;;;;;;;;;
2022/06/22 03:17:45;;;;;;;12.90;4.10;;;;;;;11.41;59.09;98745.70;107839;1292;22508;-92
2022/06/22 03:20:51;;;;;;;;;;;;;;;;;;;;;
2022/06/22 03:24:02;;;;;;;18.80;5.20;;;;;;;11.66;59.02;98763.98;107803;1292;22399;-91
2022/06/22 03:27:18;;;;;;;13.90;5.40;;;;;;;11.79;59.14;98763.17;107804;1293;23395;-93
2022/06/22 03:30:46;;;;;;;17.70;5.90;;;;;;;11.87;59.32;98763.58;107766;1293;22661;-91
2022/06/22 03:34:18;;;;;;;;;;;;;;;;;;;;;
2022/06/22 03:37:22;;;;;;;20.60;5.60;;;;;;;11.91;59.05;98753.61;107297;1299;22298;-92
2022/06/22 03:40:11;;;;;;;11.70;4.80;;;;;;;11.94;59.34;98747.34;107142;1300;22185;-91
2022/06/22 03:42:58;;;;;;;12.70;4.50;;;;;;;11.97;59.35;98746.36;107235;1296;22505;-91
2022/06/22 03:45:59;;;;;;;15.80;4.20;;;;;;;12.03;59.17;98750.17;107416;1296;22655;-91
2022/06/22 03:49:03;;;;;;;11.20;3.90;;;;;;;12.16;59.35;98756.36;107427;1296;22454;-92
2022/06/22 03:51:49;;;;;;;12.70;4.00;;;;;;;12.29;59.36;98757.95;107517;1295;22625;-92
2022/06/22 03:54:36;;;;;;;13.50;4.30;;;;;;;12.45;59.25;98762.12;107590;1294;23185;-92
2022/06/22 03:57:47;;;;;;;11.70;4.20;;;;;;;12.58;59.29;98759.03;107560;1294;22562;-92
2022/06/22 04:00:31;;;;;;;;;;;;;;;;;;;;;
2022/06/22 04:03:32;;;;;;;16.00;4.10;;;;;;;12.82;59.49;98745.73;107558;1294;22605;-92
2022/06/22 04:06:31;;;;;;;14.50;4.10;;;;;;;12.94;59.46;98751.44;107751;1293;22555;-94
2022/06/22 04:09:40;;;;;;;24.70;5.60;;;;;;;13.06;59.45;98752.40;107556;1296;22468;-92
2022/06/22 04:12:35;;;;;;;20.30;4.40;;;;;;;13.18;59.49;98751.67;108263;1288;23089;-91
2022/06/22 04:15:35;;;;;;;18.20;4.40;;;;;;;13.44;59.42;98751.24;108909;1281;23125;-90
2022/06/22 04:18:17;;;;;;;19.30;4.60;;;;;;;13.62;59.38;98748.02;109036;1281;22438;-91
2022/06/22 04:21:00;;;;;;;18.30;6.60;;;;;;;13.77;59.42;98741.65;109338;1281;22322;-91
2022/06/22 04:24:16;;;;;;;;;;;;;;;;;;;;;
2022/06/22 04:27:30;;;;;;;;;;;;;;;;;;;;;
2022/06/22 04:31:09;;;;;;;19.70;8.00;;;;;;;14.23;59.21;98737.95;109414;1281;22239;-92
2022/06/22 04:34:04;;;;;;;;;;;;;;;;;;;;;
2022/06/22 04:37:07;;;;;;;15.10;4.80;;;;;;;14.53;59.29;98752.83;109441;1280;23204;-91
2022/06/22 04:43:14;;;;;;;;;;;;;;;;;;;;;
2022/06/22 04:45:48;;;;;;;13.10;2.70;;;;;;;15.02;58.99;98763.37;109145;1281;22444;-92
2022/06/22 04:48:52;;;;;;;;;;;;;;;;;;;;;
2022/06/22 04:52:58;;;;;;;11.90;2.60;;;;;;;15.46;58.54;98762.95;109608;1280;22398;-91
2022/06/22 04:55:49;;;;;;;;;;;;;;;;;;;;;
2022/06/22 04:58:45;;;;;;;13.90;2.30;;;;;;;15.86;58.37;98770.89;109424;1281;22636;-94
2022/06/22 05:02:08;;;;;;;13.10;2.40;;;;;;;16.01;58.16;98770.82;109376;1280;22493;-93
2022/06/22 05:04:56;;;;;;;12.60;2.80;;;;;;;16.31;58.20;98773.61;109069;1281;22450;-92
2022/06/22 05:08:16;;;;;;;13.30;2.80;;;;;;;16.52;58.03;98768.25;109372;1281;22371;-92
2022/06/22 05:11:36;;;;;;;10.50;2.40;;;;;;;16.85;57.85;98762.55;109413;1281;22361;-91
2022/06/22 05:14:39;;;;;;;8.70;2.40;;;;;;;17.12;57.88;98753.45;109398;1281;22453;-91
2022/06/22 05:17:35;;;;;;;8.40;2.30;;;;;;;17.34;57.77;98756.89;109091;1281;23284;-92
2022/06/22 05:21:05;;;;;;;8.90;2.40;;;;;;;17.69;57.44;98755.77;109035;1281;22541;-90
2022/06/22 05:24:13;;;;;;;8.00;2.20;;;;;;;18.06;57.63;98747.88;109004;1281;22152;-91
2022/06/22 05:27:12;;;;;;;10.30;2.20;;;;;;;18.34;57.42;98750.84;108864;1284;22327;-91
2022/06/22 05:30:38;;;;;;;10.60;2.10;;;;;;;18.64;57.34;98749.56;109114;1279;22271;-90
2022/06/22 05:33:42;;;;;;;14.60;2.40;;;;;;;18.89;57.17;98747.70;109187;1281;22496;-92
2022/06/22 05:36:29;;;;;;;13.90;2.00;;;;;;;19.14;57.04;98757.48;108967;1281;22999;-90
2022/06/22 05:39:12;;;;;;;9.30;2.40;;;;;;;19.31;57.02;98756.23;108894;1281;22464;-92
2022/06/22 05:41:50;;;;;;;8.50;2.20;;;;;;;19.54;56.95;98758.21;108779;1281;22429;-90
2022/06/22 05:44:28;;;;;;;10.20;2.30;;;;;;;19.77;56.52;98764.65;109113;1279;23199;-90
2022/06/22 05:47:05;;;;;;;10.30;2.30;;;;;;;19.92;56.54;98757.63;108883;1281;22440;-90
2022/06/22 05:50:19;;;;;;;10.10;2.40;;;;;;;20.11;56.35;98760.76;109098;1281;22515;-91
2022/06/22 05:53:05;;;;;;;10.20;2.30;;;;;;;20.11;56.12;98760.04;108500;1286;22632;-91
2022/06/22 05:56:08;;;;;;;10.80;2.20;;;;;;;20.07;56.18;98754.38;108240;1287;22430;-91
2022/06/22 05:59:27;;;;;;;6.70;2.00;;;;;;;20.08;56.25;98752.06;108376;1286;22478;-93
2022/06/22 06:02:51;;;;;;;10.50;2.10;;;;;;;20.41;56.17;98751.98;108066;1290;22518;-90
2022/06/22 06:05:58;;;;;;;10.00;2.20;;;;;;;20.74;56.06;98749.52;108234;1290;22363;-91
2022/06/22 06:09:03;;;;;;;10.90;2.10;;;;;;;20.99;55.90;98750.64;108189;1289;22433;-94
2022/06/22 06:11:47;;;;;;;7.80;1.90;;;;;;;21.19;55.60;98744.45;108466;1289;22420;-91
2022/06/22 06:15:22;;;;;;;7.80;1.80;;;;;;;21.37;55.60;98744.06;108372;1289;22566;-92
2022/06/22 06:18:26;;;;;;;7.30;1.70;;;;;;;21.54;55.50;98742.11;108175;1289;22513;-92
2022/06/22 06:21:55;;;;;;;10.00;1.90;;;;;;;21.72;55.21;98742.89;108246;1289;22388;-89
2022/06/22 06:28:28;;;;;;;6.40;1.50;;;;;;;22.20;55.11;98744.00;108234;1290;22426;-88
2022/06/22 06:31:35;;;;;;;6.10;1.60;;;;;;;22.28;55.24;98739.61;108493;1285;23401;-89
2022/06/22 06:35:24;;;;;;;7.10;1.70;;;;;;;22.30;55.17;98740.19;107827;1291;22229;-86
2022/06/22 06:38:23;;;;;;;7.80;1.80;;;;;;;22.46;55.41;98737.30;107226;1296;22229;-88
2022/06/22 06:42:03;;;;;;;5.90;1.60;;;;;;;22.70;55.30;98738.94;107341;1296;23160;-89
2022/06/22 06:44:44;;;;;;;9.20;1.80;;;;;;;22.98;54.77;98740.04;107441;1296;22767;-89
2022/06/22 06:47:36;;;;;;;7.90;1.70;;;;;;;23.03;54.67;98733.09;107391;1295;23017;-88
2022/06/22 06:50:59;;;;;;;8.00;1.70;;;;;;;23.20;54.68;98740.75;107343;1296;22225;-90
2022/06/22 06:54:27;;;;;;;;;;;;;;;;;;;;;
2022/06/22 07:01:47;;;;;;;;;;;;;;;;;;;;;
2022/06/22 07:06:08;;;;;;;8.30;1.70;;;;;;;24.05;54.07;98750.16;106947;1301;23062;-87
2022/06/22 07:09:31;;;;;;;;;;;;;;;;;;;;;
2022/06/22 07:13:33;;;;;;;;;;;;;;;;;;;;;
2022/06/22 07:16:21;;;;;;;11.90;3.70;;;;;;;24.36;53.59;98755.99;102615;1305;5331645;-88
2022/06/22 07:20:04;;;;;;;;;;;;;;;;;;;;;
2022/06/22 07:23:50;;;;;;;;;;;;;;;;;;;;;
2022/06/22 07:27:36;;;;;;;6.60;1.70;;;;;;;25.09;53.06;98742.52;106134;1310;22242;-86
2022/06/22 07:31:18;;;;;;;8.20;1.80;;;;;;;25.27;53.13;98741.11;106243;1311;22936;-87
2022/06/22 07:34:35;;;;;;;11.40;1.90;;;;;;;25.43;52.73;98738.52;106164;1307;22265;-87
2022/06/22 07:37:38;;;;;;;6.50;1.50;;;;;;;25.63;52.61;98741.75;106245;1311;22313;-87
2022/06/22 07:44:42;;;;;;;4.90;1.40;;;;;;;25.68;51.92;98741.19;106193;1313;22230;-89
2022/06/22 07:47:47;;;;;;;6.10;1.40;;;;;;;25.73;52.08;98737.90;106724;1303;22314;-86
2022/06/22 07:50:52;;;;;;;8.20;1.50;;;;;;;25.84;51.83;98736.06;107170;1297;22444;-87
2022/06/22 07:54:10;;;;;;;5.90;1.50;;;;;;;25.92;51.66;98740.04;107023;1300;22628;-87
2022/06/22 07:57:34;;;;;;;6.40;1.60;;;;;;;26.02;51.46;98745.89;106947;1300;22436;-86
2022/06/22 08:00:40;;;;;;;4.50;1.10;;;;;;;26.01;50.98;98742.56;106824;1300;22221;-87
2022/06/22 08:03:38;;;;;;;5.40;1.00;;;;;;;26.03;51.07;98736.41;106884;1302;22407;-84
2022/06/22 08:06:16;;;;;;;5.80;1.10;;;;;;;26.16;50.76;98731.23;106791;1301;22259;-86
2022/06/22 08:08:55;;;;;;;4.30;0.90;;;;;;;26.27;51.01;98722.34;106889;1301;22817;-84
2022/06/22 08:11:35;;;;;;;3.50;1.00;;;;;;;26.43;50.60;98724.00;106771;1301;22240;-85
2022/06/22 08:14:36;;;;;;;4.20;0.90;;;;;;;26.53;50.25;98726.92;107131;1296;22464;-88
2022/06/22 08:17:23;;;;;;;7.50;1.20;;;;;;;26.57;49.95;98728.88;107291;1296;23197;-88
2022/06/22 08:19:56;;;;;;;7.40;1.40;;;;;;;26.55;49.81;98724.55;107327;1296;23016;-86
2022/06/22 08:22:37;;;;;;;4.10;0.90;;;;;;;26.65;49.88;98725.61;107315;1296;22400;-86
2022/06/22 08:25:08;;;;;;;6.50;1.10;;;;;;;26.75;49.83;98725.77;107270;1296;22539;-87
2022/06/22 08:27:38;;;;;;;6.60;1.30;;;;;;;26.69;49.02;98718.98;107339;1296;22411;-87
2022/06/22 08:30:09;;;;;;;5.00;1.10;;;;;;;26.72;49.27;98722.20;107546;1290;22438;-84
2022/06/22 08:32:48;;;;;;;4.80;1.10;;;;;;;26.86;49.28;98718.08;107782;1290;22356;-83
2022/06/22 08:35:22;;;;;;;3.50;1.00;;;;;;;26.98;48.83;98711.27;108767;1281;22400;-84
2022/06/22 08:38:06;;;;;;;5.00;1.20;;;;;;;26.87;48.32;98707.83;108768;1281;22448;-85
2022/06/22 08:41:26;;;;;;;7.10;1.20;;;;;;;26.86;48.91;98710.92;108792;1281;22342;-86
2022/06/22 08:44:08;;;;;;;5.80;1.40;;;;;;;27.02;48.41;98713.30;108551;1285;23238;-86
2022/06/22 08:47:10;;;;;;;5.90;1.40;;;;;;;27.13;48.40;98714.58;108592;1285;22498;-84
2022/06/22 08:49:46;;;;;;;3.70;1.30;;;;;;;27.26;48.44;98713.48;108619;1284;22221;-84
2022/06/22 08:52:40;;;;;;;4.40;1.20;;;;;;;27.40;48.18;98714.98;108448;1285;23315;-83
2022/06/22 08:55:38;;;;;;;5.20;0.90;;;;;;;27.52;47.89;98713.08;108593;1285;22519;-86
2022/06/22 08:58:43;;;;;;;6.60;1.10;;;;;;;27.47;47.63;98706.22;108568;1284;22417;-83
2022/06/22 09:01:30;;;;;;;6.20;0.90;;;;;;;27.63;47.67;98701.13;108558;1284;22475;-84
2022/06/22 09:04:24;;;;;;;7.30;1.70;;;;;;;27.80;47.58;98697.95;108588;1285;22382;-84
2022/06/22 09:07:26;;;;;;;7.80;1.10;;;;;;;28.00;47.38;98701.42;108588;1284;23280;-85
2022/06/22 09:10:25;;;;;;;5.40;1.40;;;;;;;28.17;47.28;98698.83;108591;1284;22534;-85
2022/06/22 09:13:29;;;;;;;5.10;1.10;;;;;;;28.35;46.97;98693.91;108607;1285;22393;-84
2022/06/22 09:16:29;;;;;;;6.30;1.20;;;;;;;28.51;46.93;98704.98;108580;1285;22469;-85
2022/06/22 09:19:43;;;;;;;6.70;1.50;;;;;;;28.52;46.49;98704.80;108715;1284;22415;-86
2022/06/22 09:22:46;;;;;;;5.40;1.20;;;;;;;28.17;45.55;98698.49;108872;1281;22281;-90
2022/06/22 09:25:59;;;;;;;5.10;1.20;;;;;;;27.98;45.99;98697.81;108855;1281;22417;-87
2022/06/22 09:28:53;;;;;;;5.00;1.20;;;;;;;28.10;46.09;98694.69;108890;1280;22358;-83
2022/06/22 09:31:54;;;;;;;4.40;1.20;;;;;;;28.26;46.00;98692.95;108907;1281;22368;-85
2022/06/22 09:35:05;;;;;;;4.10;0.90;;;;;;;28.46;45.86;98697.77;108911;1281;22473;-84
2022/06/22 09:38:07;;;;;;;5.80;1.00;;;;;;;28.63;45.85;98699.77;108983;1281;22408;-88
2022/06/22 09:41:07;;;;;;;5.30;1.30;;;;;;;28.46;44.84;98698.50;109253;1280;22428;-89
2022/06/22 09:44:09;;;;;;;5.30;1.10;;;;;;;28.49;45.15;98699.61;108998;1280;22359;-87
2022/06/22 09:46:56;;;;;;;5.30;1.30;;;;;;;28.66;45.12;98695.88;108980;1281;22399;-85
2022/06/22 09:50:02;;;;;;;3.90;0.80;;;;;;;28.80;44.81;98688.41;109187;1280;22365;-86
2022/06/22 09:53:01;;;;;;;3.80;1.00;;;;;;;28.65;43.75;98688.71;108823;1281;23034;-88
2022/06/22 09:56:22;;;;;;;5.60;1.00;;;;;;;28.06;43.84;98682.88;109325;1281;22384;-91
2022/06/22 09:59:57;;;;;;;5.50;1.10;;;;;;;27.40;42.65;98674.35;108925;1281;22325;-86
2022/06/22 10:02:42;;;;;;;5.60;1.20;;;;;;;27.18;44.47;98674.63;108926;1281;22246;-87
2022/06/22 10:05:59;;;;;;;3.60;1.00;;;;;;;27.68;44.46;98683.71;109141;1281;22611;-85
2022/06/22 10:09:00;;;;;;;4.90;0.80;;;;;;;27.91;43.44;98665.82;108990;1281;22388;-83
2022/06/22 10:11:46;;;;;;;5.00;0.80;;;;;;;27.94;43.80;98665.82;109062;1280;23173;-84
2022/06/22 10:14:31;;;;;;;4.20;0.90;;;;;;;28.14;43.84;98669.09;109025;1281;22382;-84
2022/06/22 10:17:25;;;;;;;6.40;1.10;;;;;;;28.41;43.90;98672.94;109178;1281;22456;-84
2022/06/22 10:20:18;;;;;;;4.00;1.00;;;;;;;28.69;43.64;98678.88;108910;1281;23070;-83
2022/06/22 10:23:05;;;;;;;5.40;1.40;;;;;;;28.85;43.30;98680.85;109079;1281;22344;-83
2022/06/22 10:26:10;;;;;;;5.00;1.10;;;;;;;29.06;43.36;98680.41;109009;1281;22554;-83
2022/06/22 10:29:21;;;;;;;4.30;1.10;;;;;;;29.27;43.18;98681.48;108958;1280;23178;-82
2022/06/22 10:32:25;;;;;;;4.10;1.00;;;;;;;29.40;42.99;98683.59;108458;1287;22437;-83
2022/06/22 10:36:30;;;;;;;3.90;1.00;;;;;;;29.49;42.40;98686.55;108322;1287;22223;-88
2022/06/22 10:39:45;;;;;;;;;;;;;;;;;;;;;
2022/06/22 10:46:17;;;;;;;;;;;;;;;;;;;;;
2022/06/22 10:49:07;;;;;;;5.80;1.10;;;;;;;28.70;42.25;98670.32;108121;1285;22504;-83
2022/06/22 10:52:54;;;;;;;;;;;;;;;;;;;;;
2022/06/22 10:56:03;;;;;;;;;;;;;;;;;;;;;
2022/06/22 11:03:09;;;;;;;3.50;1.00;;;;;;;29.07;40.44;98654.23;108389;1287;23116;-87
2022/06/22 11:06:31;;;;;;;;;;;;;;;;;;;;;
2022/06/22 11:10:39;;;;;;;5.40;1.20;;;;;;;28.17;41.60;98666.84;108834;1281;22449;-87
2022/06/22 11:13:45;;;;;;;;;;;;;;;;;;;;;
2022/06/22 11:17:44;;;;;;;5.70;0.90;;;;;;;28.78;41.53;98669.42;109245;1279;22484;-84
2022/06/22 11:21:28;;;;;;;4.50;1.10;;;;;;;29.11;41.39;98674.03;109311;1279;22515;-85
2022/06/22 11:25:07;;;;;;;;;;;;;;;;;;;;;
2022/06/22 11:33:04;;;;;;;3.50;0.90;;;;;;;29.47;40.64;98675.77;108337;1286;22424;-84
2022/06/22 11:35:45;;;;;;;3.30;0.90;;;;;;;29.49;40.28;98675.98;108325;1287;23261;-82
2022/06/22 11:38:21;;;;;;;3.90;1.00;;;;;;;29.52;40.06;98676.52;108230;1287;22444;-83
2022/06/22 11:41:21;;;;;;;2.80;0.80;;;;;;;29.55;40.06;98680.20;108329;1287;22452;-84
2022/06/22 11:44:30;;;;;;;3.20;1.00;;;;;;;29.40;40.11;98683.30;108386;1287;23258;-84
2022/06/22 11:47:17;;;;;;;4.00;1.00;;;;;;;29.41;40.09;98676.35;108288;1287;22456;-83
2022/06/22 11:50:30;;;;;;;4.00;0.90;;;;;;;29.54;39.79;98673.02;108292;1288;22569;-84
2022/06/22 11:53:33;;;;;;;4.00;0.90;;;;;;;29.66;39.90;98674.65;108347;1287;23121;-83
2022/06/22 11:56:18;;;;;;;3.70;1.00;;;;;;;29.76;39.85;98673.88;107921;1289;23231;-82
2022/06/22 11:59:00;;;;;;;4.40;1.10;;;;;;;29.90;39.64;98673.11;109026;1279;22147;-83
2022/06/22 12:02:04;;;;;;;4.40;0.90;;;;;;;30.00;39.67;98664.89;109160;1279;22428;-84
2022/06/22 12:05:28;;;;;;;3.80;1.10;;;;;;;30.01;39.47;98655.60;109147;1279;22506;-84
2022/06/22 12:09:16;;;;;;;3.50;0.80;;;;;;;30.17;39.64;98660.52;109034;1281;22512;-84
2022/06/22 12:12:17;;;;;;;5.90;1.10;;;;;;;30.26;39.35;98659.51;108660;1285;23176;-82
2022/06/22 12:15:09;;;;;;;3.50;1.00;;;;;;;30.22;38.99;98665.02;108673;1284;22470;-83
2022/06/22 12:18:28;;;;;;;5.40;1.20;;;;;;;30.16;38.85;98658.85;108746;1282;22519;-87
2022/06/22 12:21:43;;;;;;;4.10;1.00;;;;;;;29.20;37.87;98653.77;108687;1283;22431;-86
2022/06/22 12:25:19;;;;;;;8.20;1.10;;;;;;;29.02;38.76;98646.88;108668;1284;23234;-84
2022/06/22 12:28:34;;;;;;;5.20;1.00;;;;;;;29.17;38.50;98646.60;108500;1284;22055;-83
2022/06/22 12:31:26;;;;;;;3.80;1.00;;;;;;;29.19;38.52;98641.65;108664;1284;23103;-85
2022/06/22 12:34:10;;;;;;;2.70;0.90;;;;;;;29.23;38.63;98633.45;108637;1284;22574;-82
2022/06/22 12:36:48;;;;;;;4.00;1.10;;;;;;;29.24;38.39;98634.80;108692;1284;22412;-85
2022/06/22 12:39:28;;;;;;;2.50;0.90;;;;;;;29.20;38.33;98638.16;108423;1284;22393;-83
2022/06/22 12:42:24;;;;;;;3.50;0.90;;;;;;;29.13;38.43;98631.34;108707;1284;22572;-82
2022/06/22 12:45:35;;;;;;;3.70;1.00;;;;;;;29.14;38.31;98629.39;108657;1279;22479;-84
2022/06/22 12:48:35;;;;;;;2.20;0.90;;;;;;;29.07;37.93;98625.98;109395;1279;22609;-85
2022/06/22 12:51:35;;;;;;;5.60;1.20;;;;;;;28.92;37.73;98625.78;109095;1279;22460;-83
2022/06/22 12:54:09;;;;;;;3.60;1.40;;;;;;;28.81;37.92;98620.58;109394;1279;23118;-84
2022/06/22 12:56:49;;;;;;;4.70;1.80;;;;;;;28.82;37.85;98617.06;108746;1281;22603;-83
2022/06/22 12:59:27;;;;;;;4.90;1.30;;;;;;;28.87;37.95;98615.45;109170;1280;22449;-83
2022/06/22 13:02:06;;;;;;;4.40;1.00;;;;;;;28.95;37.87;98610.63;109189;1280;22179;-82
2022/06/22 13:04:40;;;;;;;3.60;1.00;;;;;;;29.04;37.83;98608.59;109020;1281;22838;-83
2022/06/22 13:07:18;;;;;;;2.50;0.90;;;;;;;29.15;37.83;98608.99;109138;1280;22494;-83
2022/06/22 13:09:47;;;;;;;2.70;1.00;;;;;;;29.08;37.49;98601.32;108972;1281;22474;-83
2022/06/22 13:12:37;;;;;;;2.80;1.10;;;;;;;29.04;37.29;98603.70;108782;1281;22356;-83
2022/06/22 13:15:12;;;;;;;4.40;0.80;;;;;;;28.96;37.35;98601.60;108921;1280;22503;-82
2022/06/22 13:18:04;;;;;;;2.70;0.80;;;;;;;28.94;37.17;98604.02;108718;1281;22534;-82
2022/06/22 13:20:45;;;;;;;3.30;1.00;;;;;;;28.94;37.02;98608.58;109074;1281;22244;-83
2022/06/22 13:23:44;;;;;;;4.50;1.00;;;;;;;28.88;37.37;98601.02;108801;1281;22379;-83
2022/06/22 13:26:39;;;;;;;4.50;1.10;;;;;;;28.77;37.15;98601.41;109014;1281;22388;-84
2022/06/22 13:29:34;;;;;;;4.10;1.20;;;;;;;28.68;37.23;98598.45;109029;1281;22450;-83
2022/06/22 13:32:13;;;;;;;4.60;0.90;;;;;;;28.69;37.00;98603.30;109055;1281;22474;-82
2022/06/22 13:34:51;;;;;;;3.00;0.90;;;;;;;28.68;37.00;98595.64;109049;1281;22453;-83
2022/06/22 13:37:42;;;;;;;4.50;1.00;;;;;;;28.76;36.81;98590.66;108997;1281;23061;-83
2022/06/22 13:40:41;;;;;;;5.00;1.00;;;;;;;28.80;36.78;98584.45;109074;1281;22441;-84
2022/06/22 13:43:59;;;;;;;3.60;1.10;;;;;;;28.87;36.83;98584.21;108763;1281;22176;-83
2022/06/22 13:47:08;;;;;;;3.00;1.00;;;;;;;28.96;36.86;98585.53;109136;1281;22178;-83
2022/06/22 13:50:28;;;;;;;5.20;1.20;;;;;;;29.11;36.84;98580.27;109176;1281;23176;-83
2022/06/22 13:53:28;;;;;;;7.00;1.10;;;;;;;29.18;36.38;98579.83;108677;1285;22483;-83
2022/06/22 13:56:23;;;;;;;3.50;0.80;;;;;;;29.20;36.41;98581.58;108624;1285;22428;-83
2022/06/22 13:59:03;;;;;;;5.00;1.00;;;;;;;29.17;36.35;98579.23;108649;1285;22759;-84
2022/06/22 14:01:50;;;;;;;2.80;0.90;;;;;;;29.15;36.52;98571.45;108628;1285;22538;-82
2022/06/22 14:04:31;;;;;;;4.80;1.10;;;;;;;29.21;36.46;98577.02;108597;1285;23235;-83
2022/06/22 14:07:55;;;;;;;3.70;1.10;;;;;;;29.30;36.36;98573.59;108491;1285;23712;-82
2022/06/22 14:11:15;;;;;;;4.20;0.80;;;;;;;29.35;36.29;98573.92;108644;1284;22573;-82
2022/06/22 14:14:03;;;;;;;5.00;1.00;;;;;;;29.35;36.32;98569.48;108541;1284;23175;-83
2022/06/22 14:17:08;;;;;;;3.80;1.10;;;;;;;29.33;36.23;98572.83;108486;1285;23147;-83
2022/06/22 14:19:41;;;;;;;5.60;1.10;;;;;;;29.25;35.87;98562.98;108613;1285;22465;-83
2022/06/22 14:22:36;;;;;;;8.00;1.10;;;;;;;29.20;35.90;98559.07;108516;1285;22245;-82
2022/06/22 14:25:29;;;;;;;6.10;1.40;;;;;;;29.28;36.00;98560.27;108507;1285;23080;-82
2022/06/22 14:29:01;;;;;;;;;;;;;;;;;;;;;
2022/06/22 14:32:32;;;;;;;3.20;1.00;;;;;;;29.41;36.14;98544.54;109022;1279;22689;-83
2022/06/22 14:36:19;;;;;;;4.50;0.90;;;;;;;29.43;35.86;98549.10;109179;1279;22484;-84
2022/06/22 14:39:43;;;;;;;3.40;1.00;;;;;;;29.29;35.44;98545.89;109159;1280;22534;-83
2022/06/22 14:42:50;;;;;;;4.30;0.80;;;;;;;29.26;35.80;98543.35;109276;1279;22453;-82
2022/06/22 14:45:44;;;;;;;3.80;1.10;;;;;;;29.30;35.62;98538.71;108813;1281;22571;-83
2022/06/22 14:48:42;;;;;;;3.70;0.90;;;;;;;29.21;35.64;98532.42;109059;1279;22411;-84
2022/06/22 14:52:23;;;;;;;;;;;;;;;;;;;;;
2022/06/22 14:56:29;;;;;;;;;;;;;;;;;;;;;
2022/06/22 15:00:26;;;;;;;;;;;;;;;;;;;;;
2022/06/22 15:03:39;;;;;;;4.40;1.00;;;;;;;29.37;35.67;98517.66;108215;1287;22458;-84
2022/06/22 15:06:45;;;;;;;;;;;;;;;;;;;;;
2022/06/22 15:09:47;;;;;;;5.10;1.50;;;;;;;29.57;35.54;98512.26;107600;1293;22564;-84
2022/06/22 15:13:08;;;;;;;;;;;;;;;;;;;;;
2022/06/22 15:16:45;;;;;;;4.90;1.20;;;;;;;29.99;35.42;98508.76;107787;1291;22509;-85
2022/06/22 15:20:43;;;;;;;;;;;;;;;;;;;;;
2022/06/22 15:24:17;;;;;;;7.20;2.30;;;;;;;30.73;35.65;98510.48;106863;1302;22339;-85
2022/06/22 15:27:56;;;;;;;5.70;1.20;;;;;;;31.18;35.44;98515.22;106834;1303;22428;-84
2022/06/22 15:31:35;;;;;;;12.90;6.20;;;;;;;31.70;35.06;98510.97;106349;1308;22312;-83
2022/06/22 15:35:11;;;;;;;9.90;3.70;;;;;;;32.24;35.16;98499.44;106394;1308;22985;-84
2022/06/22 15:38:55;;;;;;;6.60;1.60;;;;;;;32.73;34.41;98497.73;106347;1309;22431;-83
2022/06/22 15:41:58;;;;;;;18.50;8.40;;;;;;;32.83;34.43;98492.43;106364;1309;22295;-84
2022/06/22 15:45:44;;;;;;;12.90;6.10;;;;;;;33.10;34.43;98493.41;106219;1311;22465;-85
2022/06/22 15:48:15;;;;;;;14.10;4.80;;;;;;;33.58;34.82;98489.23;106321;1305;22295;-84
2022/06/22 15:50:55;;;;;;;9.60;2.80;;;;;;;34.01;34.26;98485.04;106619;1305;22431;-84
2022/06/22 15:54:05;;;;;;;5.60;1.60;;;;;;;34.29;34.27;98488.34;106620;1305;22216;-83
2022/06/22 15:57:07;;;;;;;5.40;1.30;;;;;;;34.60;33.86;98484.66;106808;1302;22268;-83
2022/06/22 15:59:53;;;;;;;4.30;1.40;;;;;;;34.68;33.50;98483.15;107269;1294;22212;-83
2022/06/22 16:02:54;;;;;;;28.00;13.00;;;;;;;34.79;33.80;98486.34;107344;1296;22420;-83
2022/06/22 16:05:47;;;;;;;6.80;1.70;;;;;;;34.93;33.42;98490.59;107928;1289;22409;-83
2022/06/22 16:08:43;;;;;;;5.80;1.60;;;;;;;35.00;33.54;98494.30;107970;1290;22757;-83
2022/06/22 16:14:59;;;;;;;11.60;4.50;;;;;;;34.72;33.62;98487.92;108543;1282;22558;-83
2022/06/22 16:18:34;;;;;;;5.00;1.80;;;;;;;34.40;33.24;98481.81;109026;1281;22379;-83
2022/06/22 16:21:20;;;;;;;3.80;1.00;;;;;;;34.35;33.41;98479.42;108978;1281;22446;-83
2022/06/22 16:24:00;;;;;;;5.70;1.50;;;;;;;34.35;33.22;98477.90;108712;1282;22348;-82
2022/06/22 16:26:56;;;;;;;3.30;1.20;;;;;;;34.24;33.26;98476.65;108763;1282;22225;-83
2022/06/22 16:29:36;;;;;;;8.70;1.50;;;;;;;34.24;32.98;98476.10;109009;1281;22360;-83
2022/06/22 16:32:16;;;;;;;4.10;1.20;;;;;;;34.16;32.84;98479.88;108729;1282;22385;-84
2022/06/22 16:34:49;;;;;;;10.20;3.40;;;;;;;34.44;32.71;98479.59;108727;1282;22363;-83
2022/06/22 16:37:54;;;;;;;24.20;12.10;;;;;;;34.96;32.80;98487.58;108981;1281;22527;-83
2022/06/22 16:40:42;;;;;;;10.20;4.90;;;;;;;35.64;32.42;98485.83;108735;1282;22200;-83